This is the latest recevied weather packets stored in our database for station/object HA9OZD-18. If no packets are shown the sender has not sent any weather packets the latest 10 day(s).
| Time | Temp. | Humidity | Pressure | Rain* | Wind** | Luminosity | Snow |
|---|---|---|---|---|---|---|---|
| 1778212365 | 8.89° C | 100% | 1016.2 hPa | - | - | - | - |
| 1778208766 | 8.89° C | 100% | 1015.8 hPa | - | - | - | - |
| 1778205165 | 8.89° C | 100% | 1015.8 hPa | - | - | - | - |
| 1778201566 | 8.89° C | 100% | 1016 hPa | - | - | - | - |
| 1778197965 | 8.89° C | 100% | 1016.3 hPa | - | - | - | - |
| 1778194364 | 8.33° C | 100% | 1016.6 hPa | - | - | - | - |
| 1778190764 | 8.89° C | 100% | 1016.7 hPa | - | - | - | - |
| 1778187167 | 8.89° C | 100% | 1016.4 hPa | - | - | - | - |
| 1778183659 | 9.44° C | 100% | 1016.3 hPa | - | - | - | - |
| 1778183597 | 9.44° C | 100% | 1016.3 hPa | - | - | - | - |
| 1778183563 | 9.44° C | 100% | 1016.3 hPa | - | - | - | - |
| 1778179963 | 10° C | 100% | 1015.9 hPa | - | - | - | - |
| 1778176369 | 10.56° C | 88% | 1015.4 hPa | - | - | - | - |
| 1778172762 | 12.22° C | 80% | 1015.2 hPa | - | - | - | - |
| 1778169163 | 14.44° C | 71% | 1015.1 hPa | - | - | - | - |
| 1778165562 | 16.11° C | 65% | 1015.1 hPa | - | - | - | - |
| 1778161970 | 16.11° C | 67% | 1015.3 hPa | - | - | - | - |
| 1778158370 | 18.33° C | 60% | 1015.3 hPa | - | - | - | - |
| 1778154770 | 16.67° C | 73% | 1015.5 hPa | - | - | - | - |
| 1778151169 | 15° C | 93% | 1015.5 hPa | - | - | - | - |
| 1778147616 | 12.78° C | 100% | 1015.4 hPa | - | - | - | - |
| 1778147580 | 12.78° C | 100% | 1015.4 hPa | - | - | - | - |
| 1778147569 | 12.78° C | 100% | 1015.4 hPa | - | - | - | - |
| 1778140369 | 12.22° C | 100% | 1014.6 hPa | - | - | - | - |
| 1778136768 | 11.67° C | 100% | 1014.4 hPa | - | - | - | - |
* Rain since midnight (hover to see other rain measurements)
** Current wind speed in m/s (hover to see current wind gust speed)